Moron de la Frontera, Spain
Current Conditions -  °F | °C
As of 1:00 AM on Tuesday 21 Oct 2014 (Local Time) from LEMO Reporting Station
Clear Clear  
Wind Chill: 64°   Ceiling: Unl
Heat Index: 64°   Visibility: 6mi
Dew Point: 59°   Wind: 1mph
Humidity: 83%   Direction: NA
Pressure: 30.12"   Gusts: NA
Location:  37.12°N, 5.45°W
Report Text: LEMO 202300Z VRB01KT CAVOK 18/15 Q1020 NOSIG
Loading
Personal Weather Stations






























Interactive Weather Map
Tropical Storm Tracking
New forecast layout! Learn more

10-Day Weather Forecast

Advertisements
Track Severe Weather on mobile